Time;durP1;ratioP1;P1;durP2;ratioP2;P2;SDS_P1;SDS_P2;PMS_P1;PMS_P2;Temp;Humidity;BMP_temperature;BMP_pressure;BME280_temperature;BME280_humidity;BME280_pressure;Samples;Min_cycle;Max_cycle;Signal;HPM_P1;HPM_P2
2023/02/16 00:01:36;;;;;;;19.73;13.23;;;8.40;53.50;;;;;;5028982;28;20448;-51
2023/02/16 00:04:19;;;;;;;19.27;13.83;;;8.30;53.90;;;;;;5028537;28;20485;-49
2023/02/16 00:06:45;;;;;;;17.53;13.20;;;8.30;53.90;;;;;;5014629;28;20213;-49
2023/02/16 00:09:11;;;;;;;18.10;13.30;;;8.10;54.10;;;;;;5022684;28;20436;-50
2023/02/16 00:14:23;;;;;;;22.47;13.50;;;8.00;54.80;;;;;;5020422;28;20451;-49
2023/02/16 00:16:49;;;;;;;18.47;12.53;;;8.00;54.50;;;;;;5029193;28;20454;-51
2023/02/16 00:19:21;;;;;;;20.67;12.67;;;8.10;54.30;;;;;;5023590;28;20444;-50
2023/02/16 00:21:48;;;;;;;18.17;13.13;;;8.10;54.20;;;;;;5025114;28;20454;-52
2023/02/16 00:24:14;;;;;;;16.80;11.50;;;8.10;54.80;;;;;;5024812;28;21143;-50
2023/02/16 00:26:41;;;;;;;18.57;11.53;;;8.10;54.10;;;;;;5023379;28;20488;-53
2023/02/16 00:29:12;;;;;;;15.50;12.23;;;8.10;54.10;;;;;;5022154;28;20491;-50
2023/02/16 00:31:38;;;;;;;17.93;11.67;;;8.10;54.10;;;;;;5028995;28;20440;-49
2023/02/16 00:34:29;;;;;;;20.10;13.60;;;8.10;54.00;;;;;;5022107;28;20522;-52
2023/02/16 00:36:55;;;;;;;19.10;11.20;;;8.20;54.20;;;;;;5020296;28;20307;-51
2023/02/16 00:39:23;;;;;;;18.63;11.67;;;8.20;54.20;;;;;;5021776;28;20475;-50
2023/02/16 00:41:50;;;;;;;16.40;13.13;;;8.20;54.30;;;;;;5026902;28;20440;-51
2023/02/16 00:44:19;;;;;;;15.40;12.30;;;8.20;54.40;;;;;;5025498;28;20810;-50
2023/02/16 00:46:46;;;;;;;16.57;12.30;;;8.20;54.50;;;;;;5023594;28;20491;-50
2023/02/16 00:49:16;;;;;;;18.30;12.90;;;8.30;54.20;;;;;;5022799;28;20458;-50
2023/02/16 00:51:42;;;;;;;17.13;12.50;;;8.30;54.00;;;;;;5018737;28;20463;-50
2023/02/16 00:54:08;;;;;;;18.10;12.77;;;8.30;53.80;;;;;;5016860;28;20556;-50
2023/02/16 00:56:35;;;;;;;17.40;12.00;;;8.30;53.70;;;;;;5027652;28;20475;-50
2023/02/16 00:59:01;;;;;;;18.17;11.57;;;8.30;53.50;;;;;;5025813;28;20335;-51
2023/02/16 01:01:30;;;;;;;16.80;13.20;;;8.30;53.40;;;;;;5025768;28;20514;-51
2023/02/16 01:04:00;;;;;;;16.33;12.30;;;8.20;53.30;;;;;;5027546;28;20448;-50
2023/02/16 01:12:00;;;;;;;15.73;11.50;;;7.90;53.60;;;;;;5021927;28;20466;-50
2023/02/16 01:14:26;;;;;;;18.60;13.00;;;7.70;54.10;;;;;;5016955;28;20448;-50
2023/02/16 01:16:51;;;;;;;19.40;12.60;;;7.60;54.30;;;;;;5026825;28;20451;-51
2023/02/16 01:19:17;;;;;;;17.20;12.77;;;7.60;54.50;;;;;;5024347;28;20297;-50
2023/02/16 01:21:43;;;;;;;20.97;13.50;;;7.60;54.20;;;;;;5024265;28;20197;-51
2023/02/16 01:24:08;;;;;;;19.47;12.97;;;7.70;54.00;;;;;;5033509;28;20195;-50
2023/02/16 01:26:40;;;;;;;17.27;12.60;;;7.80;54.00;;;;;;5024937;28;20224;-50
2023/02/16 01:29:06;;;;;;;18.17;13.40;;;7.80;53.90;;;;;;5027210;28;20236;-53
2023/02/16 01:31:32;;;;;;;19.53;13.43;;;7.80;53.90;;;;;;5026614;28;20444;-51
2023/02/16 01:33:57;;;;;;;15.43;12.07;;;7.80;53.90;;;;;;5028805;28;20452;-54
2023/02/16 01:36:32;;;;;;;19.07;12.50;;;7.70;53.60;;;;;;5025706;28;20201;-50
2023/02/16 01:38:58;;;;;;;16.80;14.47;;;7.70;53.60;;;;;;5021757;28;20201;-51
2023/02/16 01:41:39;;;;;;;18.33;13.57;;;7.70;53.60;;;;;;5028096;28;20436;-50
2023/02/16 01:44:12;;;;;;;18.80;12.97;;;7.60;53.50;;;;;;5025364;28;20444;-50
2023/02/16 01:47:07;;;;;;;20.30;12.90;;;7.60;53.80;;;;;;5024600;28;20495;-50
2023/02/16 01:49:33;;;;;;;16.80;11.00;;;7.60;53.80;;;;;;5000102;28;20502;-51
2023/02/16 01:52:06;;;;;;;17.13;11.10;;;7.60;53.90;;;;;;5031632;28;20483;-50
2023/02/16 01:54:53;;;;;;;14.23;11.13;;;7.60;54.00;;;;;;5024834;28;20197;-50
2023/02/16 01:58:03;;;;;;;19.10;11.73;;;7.30;54.10;;;;;;5031880;28;20812;-51
2023/02/16 02:00:31;;;;;;;14.80;11.10;;;7.20;54.90;;;;;;5002499;28;20488;-50
2023/02/16 02:05:46;;;;;;;15.57;11.30;;;7.20;54.50;;;;;;5025818;28;20525;-50
2023/02/16 02:08:21;;;;;;;16.37;10.50;;;7.20;54.90;;;;;;5031028;28;20462;-51
2023/02/16 02:11:04;;;;;;;13.00;10.13;;;7.20;54.80;;;;;;5025900;28;20474;-50
2023/02/16 02:13:57;;;;;;;13.67;10.93;;;6.90;55.40;;;;;;5031906;28;20444;-51
2023/02/16 02:16:24;;;;;;;16.33;11.17;;;6.90;55.60;;;;;;5028328;28;20458;-50
2023/02/16 02:18:51;;;;;;;22.13;12.40;;;6.80;55.70;;;;;;5026473;28;20435;-51
2023/02/16 02:24:41;;;;;;;18.57;11.67;;;6.80;56.00;;;;;;5023208;28;20463;-51
2023/02/16 02:27:17;;;;;;;14.43;11.27;;;6.80;55.90;;;;;;5025821;28;20451;-51
2023/02/16 02:29:53;;;;;;;15.53;11.23;;;6.90;55.80;;;;;;5026654;28;20553;-50
2023/02/16 02:32:30;;;;;;;16.33;11.87;;;6.90;55.60;;;;;;5023948;28;20452;-50
2023/02/16 02:35:10;;;;;;;17.20;12.17;;;7.00;55.40;;;;;;5023137;28;20977;-51
2023/02/16 02:37:54;;;;;;;16.63;11.20;;;7.10;55.30;;;;;;5027326;28;20456;-53
2023/02/16 02:40:35;;;;;;;26.50;14.07;;;7.10;55.30;;;;;;5026044;28;20451;-51
2023/02/16 02:43:12;;;;;;;12.93;10.50;;;7.10;55.20;;;;;;5028214;28;20448;-52
2023/02/16 02:45:53;;;;;;;15.30;12.10;;;7.20;54.90;;;;;;5021657;28;20548;-50
2023/02/16 02:48:18;;;;;;;16.40;12.40;;;7.10;54.60;;;;;;5030060;28;21029;-50
2023/02/16 02:53:41;;;;;;;16.30;12.00;;;7.10;54.80;;;;;;5031428;28;20364;-51
2023/02/16 03:01:50;;;;;;;17.13;11.97;;;7.20;54.40;;;;;;5030101;28;20543;-53
2023/02/16 03:04:22;;;;;;;26.10;12.20;;;7.20;54.20;;;;;;5029588;28;20446;-54
2023/02/16 03:06:52;;;;;;;18.43;11.70;;;7.20;54.10;;;;;;5022346;28;20561;-54
2023/02/16 03:09:19;;;;;;;17.63;11.93;;;7.10;54.20;;;;;;5014781;28;20441;-54
2023/02/16 03:14:38;;;;;;;14.63;11.27;;;7.00;54.50;;;;;;5025968;28;20498;-53
2023/02/16 03:31:05;;;;;;;18.50;12.20;;;6.40;55.50;;;;;;5030418;28;20478;-51
2023/02/16 03:33:31;;;;;;;18.90;11.13;;;6.30;56.10;;;;;;5026147;28;20537;-53
2023/02/16 03:35:58;;;;;;;16.70;11.50;;;6.30;56.40;;;;;;5026788;28;20494;-53
2023/02/16 03:38:24;;;;;;;13.23;10.20;;;6.20;56.60;;;;;;5028139;28;20448;-54
2023/02/16 03:40:51;;;;;;;17.17;12.03;;;6.00;57.30;;;;;;5027713;28;20444;-53
2023/02/16 03:43:16;;;;;;;20.30;11.17;;;5.90;57.70;;;;;;5023737;28;20848;-54
2023/02/16 03:45:43;;;;;;;15.47;10.53;;;6.10;57.60;;;;;;5023733;28;20484;-53
2023/02/16 03:48:09;;;;;;;17.80;10.20;;;6.30;57.20;;;;;;5023836;28;20198;-52
2023/02/16 03:50:35;;;;;;;14.50;10.50;;;6.40;56.80;;;;;;5021168;28;20552;-55
2023/02/16 03:53:06;;;;;;;15.03;11.67;;;6.50;56.30;;;;;;5025984;28;20542;-52
2023/02/16 03:55:37;;;;;;;14.23;10.57;;;6.50;56.10;;;;;;5027961;28;20806;-53
2023/02/16 03:58:05;;;;;;;14.80;11.40;;;6.40;56.40;;;;;;5028640;28;20475;-52
2023/02/16 04:00:31;;;;;;;17.47;11.23;;;6.20;56.50;;;;;;5028919;28;20478;-53
2023/02/16 04:02:57;;;;;;;16.17;10.73;;;6.30;56.80;;;;;;5025420;28;20448;-51
2023/02/16 04:05:23;;;;;;;19.90;10.90;;;6.40;56.60;;;;;;5024333;28;20488;-53
2023/02/16 04:07:49;;;;;;;14.43;10.37;;;6.40;56.50;;;;;;5025620;28;20204;-53
2023/02/16 04:10:15;;;;;;;13.77;11.10;;;6.50;56.40;;;;;;5029294;28;20217;-53
2023/02/16 04:12:40;;;;;;;17.73;11.47;;;6.60;56.30;;;;;;5022073;28;20251;-52
2023/02/16 04:15:09;;;;;;;19.63;11.90;;;6.60;56.10;;;;;;5024432;28;20452;-52
2023/02/16 04:17:35;;;;;;;16.87;11.47;;;6.70;55.80;;;;;;5020384;28;20201;-53
2023/02/16 04:20:00;;;;;;;20.60;11.00;;;6.70;55.60;;;;;;5020642;28;20432;-51
2023/02/16 04:22:26;;;;;;;17.63;11.07;;;6.70;55.60;;;;;;5021425;28;20681;-52
2023/02/16 04:24:52;;;;;;;14.27;10.97;;;6.70;55.50;;;;;;5024439;28;20217;-53
2023/02/16 04:27:18;;;;;;;12.53;10.50;;;6.60;55.50;;;;;;5021245;28;20448;-54
2023/02/16 04:29:43;;;;;;;13.90;10.73;;;6.50;55.70;;;;;;5022283;28;20237;-54
2023/02/16 04:32:09;;;;;;;15.90;11.70;;;6.10;56.20;;;;;;5027062;28;20956;-52
2023/02/16 04:34:35;;;;;;;15.37;11.57;;;6.10;56.90;;;;;;5024699;28;20209;-53
2023/02/16 04:37:01;;;;;;;17.87;11.60;;;6.00;56.80;;;;;;5028250;28;20225;-54
2023/02/16 04:39:26;;;;;;;19.90;11.73;;;6.00;56.90;;;;;;5005974;28;20201;-53
2023/02/16 04:41:52;;;;;;;15.13;11.10;;;6.00;57.10;;;;;;5023500;28;20806;-53
2023/02/16 04:44:17;;;;;;;14.17;11.00;;;6.00;57.10;;;;;;5022380;28;20671;-52
2023/02/16 04:46:43;;;;;;;19.20;11.20;;;6.00;57.10;;;;;;5022945;28;20333;-52
2023/02/16 04:49:09;;;;;;;13.13;10.90;;;5.90;57.00;;;;;;5022590;28;20239;-52
2023/02/16 04:51:34;;;;;;;16.17;10.73;;;5.90;57.10;;;;;;5026732;28;20247;-52
2023/02/16 04:54:00;;;;;;;15.27;10.87;;;5.90;57.30;;;;;;5025212;28;20280;-50
2023/02/16 04:56:27;;;;;;;13.03;10.93;;;6.00;57.10;;;;;;5023468;28;20989;-51
2023/02/16 04:58:52;;;;;;;16.37;11.53;;;5.90;57.30;;;;;;5019753;28;20190;-51
2023/02/16 05:01:20;;;;;;;15.70;12.13;;;5.90;57.20;;;;;;5020322;28;20490;-52
2023/02/16 05:03:46;;;;;;;15.17;10.80;;;5.90;57.20;;;;;;5018327;28;20273;-54
2023/02/16 05:06:11;;;;;;;12.90;10.27;;;5.90;57.20;;;;;;5019916;28;20487;-53
2023/02/16 05:08:37;;;;;;;16.90;10.20;;;6.00;57.10;;;;;;5026479;28;20440;-53
2023/02/16 05:16:31;;;;;;;18.20;11.10;;;5.70;57.90;;;;;;5025080;28;20493;-52
2023/02/16 05:18:57;;;;;;;19.57;10.23;;;5.70;57.90;;;;;;5017698;28;20923;-52
2023/02/16 05:21:31;;;;;;;15.43;11.17;;;5.80;57.90;;;;;;5024516;28;20201;-53
2023/02/16 05:23:58;;;;;;;13.27;10.13;;;5.70;57.80;;;;;;5020012;28;20216;-50
2023/02/16 05:26:24;;;;;;;15.00;10.27;;;5.70;58.20;;;;;;5021088;28;20852;-51
2023/02/16 05:28:50;;;;;;;16.37;10.33;;;5.80;58.70;;;;;;5023984;28;20515;-50
2023/02/16 05:31:15;;;;;;;15.00;10.97;;;5.90;57.60;;;;;;5023072;28;20505;-50
2023/02/16 05:33:41;;;;;;;16.57;10.70;;;6.00;57.40;;;;;;5024860;28;20201;-52
2023/02/16 05:36:07;;;;;;;14.80;10.33;;;6.10;57.20;;;;;;5023859;28;20201;-51
2023/02/16 05:38:33;;;;;;;15.10;11.27;;;6.10;57.50;;;;;;5020932;28;20205;-52
2023/02/16 05:40:59;;;;;;;14.27;10.70;;;6.00;56.80;;;;;;5018681;28;20845;-51
2023/02/16 05:43:24;;;;;;;17.33;11.00;;;6.10;56.90;;;;;;5019449;28;20244;-52
2023/02/16 05:45:50;;;;;;;13.17;10.17;;;6.10;56.90;;;;;;5021282;28;20221;-50
2023/02/16 05:48:16;;;;;;;17.97;11.50;;;5.90;56.80;;;;;;5027789;28;20315;-53
2023/02/16 05:50:41;;;;;;;16.87;11.73;;;5.80;57.10;;;;;;5024021;28;20201;-50
2023/02/16 05:53:07;;;;;;;17.10;10.10;;;5.70;57.20;;;;;;5022592;28;20190;-49
2023/02/16 05:55:33;;;;;;;13.30;10.23;;;5.50;57.40;;;;;;5017867;28;20332;-49
2023/02/16 05:57:58;;;;;;;18.47;11.40;;;5.50;58.00;;;;;;5027549;28;20193;-50
2023/02/16 06:00:24;;;;;;;14.90;10.70;;;5.50;58.30;;;;;;5025854;28;20250;-52
2023/02/16 06:02:50;;;;;;;14.70;11.10;;;5.60;58.00;;;;;;5019768;28;20186;-52
2023/02/16 06:05:15;;;;;;;18.70;11.30;;;5.70;58.00;;;;;;5024912;28;20241;-50
2023/02/16 06:07:41;;;;;;;18.27;12.20;;;5.70;57.80;;;;;;5028944;28;20608;-49
2023/02/16 06:10:07;;;;;;;17.27;12.00;;;5.60;57.80;;;;;;5027136;28;20193;-52
2023/02/16 06:12:33;;;;;;;12.97;9.80;;;5.70;58.00;;;;;;5016912;28;20189;-52
2023/02/16 06:15:02;;;;;;;14.70;12.33;;;5.80;57.90;;;;;;5023008;28;20504;-53
2023/02/16 06:17:28;;;;;;;16.37;11.20;;;6.10;58.80;;;;;;5029348;28;20537;-52
2023/02/16 06:19:53;;;;;;;16.17;9.77;;;6.40;58.70;;;;;;5027468;28;20852;-53
2023/02/16 06:22:19;;;;;;;14.13;10.90;;;6.60;58.90;;;;;;5019747;28;20219;-53
2023/02/16 06:24:45;;;;;;;15.20;10.87;;;6.90;59.40;;;;;;5025091;28;20231;-53
2023/02/16 06:27:10;;;;;;;15.90;10.70;;;7.20;58.70;;;;;;5026437;28;20239;-53
2023/02/16 06:29:36;;;;;;;13.27;9.53;;;7.60;58.20;;;;;;5029714;28;20229;-51
2023/02/16 06:32:02;;;;;;;14.10;9.60;;;7.90;57.30;;;;;;5024468;28;20181;-51
2023/02/16 06:34:27;;;;;;;14.40;9.83;;;8.20;56.00;;;;;;5007871;28;20201;-54
2023/02/16 06:36:53;;;;;;;11.90;10.03;;;8.40;55.10;;;;;;5020767;28;20200;-53
2023/02/16 06:39:19;;;;;;;12.23;10.27;;;8.70;54.30;;;;;;5020727;28;20194;-53
2023/02/16 06:41:45;;;;;;;13.17;10.53;;;8.90;53.60;;;;;;5021485;28;20591;-54
2023/02/16 06:44:13;;;;;;;15.93;9.90;;;9.00;52.70;;;;;;5026484;28;20702;-50
2023/02/16 06:46:40;;;;;;;17.00;12.93;;;9.10;51.50;;;;;;5025723;28;20979;-50
2023/02/16 06:49:06;;;;;;;15.40;11.17;;;9.00;51.30;;;;;;5024852;28;20901;-53
2023/02/16 06:51:32;;;;;;;16.50;11.40;;;9.10;51.10;;;;;;5023789;28;20444;-53
2023/02/16 06:53:57;;;;;;;17.77;11.20;;;9.10;50.60;;;;;;5023171;28;20200;-51
2023/02/16 06:56:24;;;;;;;18.23;11.67;;;9.20;50.20;;;;;;5025685;28;20444;-54
2023/02/16 06:58:49;;;;;;;13.93;11.17;;;9.20;50.10;;;;;;5029629;28;20605;-53
2023/02/16 07:01:21;;;;;;;15.70;12.10;;;9.20;49.90;;;;;;5030001;28;20466;-51
2023/02/16 07:03:51;;;;;;;14.00;10.40;;;9.30;49.90;;;;;;5026038;28;20193;-50
2023/02/16 07:06:17;;;;;;;16.73;11.50;;;9.50;49.90;;;;;;5026178;28;20536;-54
2023/02/16 07:08:43;;;;;;;12.93;10.00;;;9.60;49.70;;;;;;5022955;28;20444;-53
2023/02/16 07:11:08;;;;;;;14.07;10.60;;;9.70;49.50;;;;;;5027259;28;20462;-50
2023/02/16 07:13:37;;;;;;;13.80;10.93;;;9.70;48.90;;;;;;5012305;28;20193;-52
2023/02/16 07:16:03;;;;;;;14.47;11.23;;;9.80;49.10;;;;;;5018595;28;21086;-52
2023/02/16 07:18:29;;;;;;;15.23;11.73;;;9.60;49.10;;;;;;5024105;28;20824;-53
2023/02/16 07:20:54;;;;;;;14.17;10.73;;;9.50;49.40;;;;;;5022614;28;20463;-51
2023/02/16 07:23:20;;;;;;;15.60;12.37;;;9.60;49.90;;;;;;5021119;28;20278;-52
2023/02/16 07:25:46;;;;;;;15.13;12.23;;;9.80;49.50;;;;;;5024165;28;20220;-52
2023/02/16 07:28:12;;;;;;;15.50;11.70;;;9.90;49.30;;;;;;5024500;28;20562;-53
2023/02/16 07:30:37;;;;;;;16.00;11.17;;;10.00;48.20;;;;;;5023253;28;20525;-54
2023/02/16 07:33:03;;;;;;;17.70;12.07;;;10.00;48.20;;;;;;5025986;28;20197;-50
2023/02/16 07:35:29;;;;;;;13.30;10.80;;;10.00;48.10;;;;;;5018394;28;20194;-53
2023/02/16 07:37:54;;;;;;;14.53;11.33;;;9.80;49.10;;;;;;5026038;28;20243;-51
2023/02/16 07:40:20;;;;;;;13.63;10.70;;;9.80;49.90;;;;;;5030387;28;20560;-51
2023/02/16 07:42:45;;;;;;;18.10;11.83;;;9.90;50.10;;;;;;5027880;28;20177;-54
2023/02/16 07:45:11;;;;;;;14.47;11.40;;;10.00;49.00;;;;;;5028001;28;20354;-52
2023/02/16 07:47:36;;;;;;;14.70;10.50;;;10.10;48.80;;;;;;5024922;28;20217;-52
2023/02/16 07:50:03;;;;;;;15.27;11.93;;;10.00;48.70;;;;;;5024661;28;20197;-51
2023/02/16 07:52:29;;;;;;;20.47;13.20;;;10.10;48.90;;;;;;5025507;28;20298;-51
2023/02/16 07:54:57;;;;;;;22.50;14.03;;;10.20;48.70;;;;;;5028651;28;20518;-54
2023/02/16 07:57:23;;;;;;;17.50;12.87;;;10.20;48.60;;;;;;5027293;28;20451;-53
2023/02/16 07:59:53;;;;;;;14.37;11.20;;;10.30;48.70;;;;;;5027318;28;20939;-54
2023/02/16 08:02:20;;;;;;;15.50;12.07;;;10.40;49.00;;;;;;5021118;28;20885;-53
2023/02/16 08:04:47;;;;;;;14.33;10.60;;;10.40;48.40;;;;;;5020328;28;20483;-54
2023/02/16 08:07:14;;;;;;;17.00;11.77;;;10.50;48.50;;;;;;5021508;28;20436;-51
2023/02/16 08:09:39;;;;;;;14.43;11.20;;;10.80;48.40;;;;;;5011785;28;20440;-54
2023/02/16 08:12:16;;;;;;;18.97;11.00;;;10.90;48.40;;;;;;5011804;28;20435;-53
2023/02/16 08:14:42;;;;;;;14.03;11.20;;;10.90;48.20;;;;;;5011351;28;20194;-54
2023/02/16 08:17:07;;;;;;;15.57;12.03;;;11.00;48.10;;;;;;5026743;28;20455;-54
2023/02/16 08:19:34;;;;;;;15.00;11.70;;;11.00;48.10;;;;;;5013035;28;20421;-53
2023/02/16 08:22:01;;;;;;;14.50;12.63;;;11.00;48.10;;;;;;5011535;28;20433;-53
2023/02/16 08:24:27;;;;;;;14.50;12.00;;;10.70;48.50;;;;;;5011449;28;20425;-54
2023/02/16 08:26:54;;;;;;;15.50;11.80;;;10.70;48.60;;;;;;5011377;28;20495;-53
2023/02/16 08:32:50;;;;;;;14.83;11.30;;;10.90;48.60;;;;;;5055821;22;20504;-53
2023/02/16 08:35:17;;;;;;;18.27;12.40;;;10.90;48.90;;;;;;5025676;28;20451;-53
2023/02/16 08:37:42;;;;;;;12.00;10.70;;;11.00;48.90;;;;;;5028173;28;20475;-52
2023/02/16 08:40:09;;;;;;;16.70;11.90;;;11.10;49.10;;;;;;5025675;28;20479;-54
2023/02/16 08:42:36;;;;;;;14.70;11.87;;;11.20;49.20;;;;;;5024978;28;20196;-53
2023/02/16 08:45:02;;;;;;;15.37;12.30;;;11.30;48.90;;;;;;5025033;28;20568;-54
2023/02/16 08:47:28;;;;;;;16.50;13.03;;;11.40;48.90;;;;;;5017965;28;20987;-54
2023/02/16 08:49:54;;;;;;;13.27;11.27;;;11.50;49.00;;;;;;5020024;28;20437;-54
2023/02/16 08:52:20;;;;;;;15.50;11.50;;;11.50;49.40;;;;;;5015859;28;20440;-55
2023/02/16 08:54:45;;;;;;;16.00;12.07;;;11.70;49.50;;;;;;5019200;28;20442;-54
2023/02/16 08:57:12;;;;;;;15.83;11.30;;;11.90;49.30;;;;;;5024820;28;20201;-54
2023/02/16 08:59:37;;;;;;;13.30;11.40;;;12.10;49.10;;;;;;5026631;28;20300;-54
2023/02/16 09:02:03;;;;;;;17.70;11.77;;;12.00;48.90;;;;;;5030326;28;20519;-54
2023/02/16 09:04:29;;;;;;;14.87;11.60;;;12.10;49.40;;;;;;5031025;28;20208;-54
2023/02/16 09:06:56;;;;;;;17.73;12.57;;;12.40;48.80;;;;;;5024225;28;20283;-54
2023/02/16 09:09:23;;;;;;;14.07;11.53;;;12.50;48.40;;;;;;5020650;28;20539;-55
2023/02/16 09:11:49;;;;;;;15.90;12.77;;;12.60;48.30;;;;;;5010669;28;20826;-53
2023/02/16 09:14:16;;;;;;;14.90;12.20;;;12.80;48.60;;;;;;5015047;28;20448;-54
2023/02/16 09:16:44;;;;;;;19.17;11.70;;;12.90;48.10;;;;;;5026412;28;20447;-54
2023/02/16 09:19:12;;;;;;;16.50;12.10;;;12.80;48.30;;;;;;5018000;28;20478;-54
2023/02/16 09:21:38;;;;;;;14.30;11.27;;;12.70;48.80;;;;;;5020971;28;20451;-54
2023/02/16 09:24:04;;;;;;;13.47;11.10;;;12.80;48.00;;;;;;5025644;28;20518;-53
2023/02/16 09:26:32;;;;;;;16.37;12.33;;;12.90;47.80;;;;;;5021474;28;20237;-52
2023/02/16 09:28:58;;;;;;;15.43;11.13;;;13.00;47.80;;;;;;5024883;28;20509;-51
2023/02/16 09:31:28;;;;;;;14.90;12.80;;;13.20;47.60;;;;;;5024340;28;20918;-51
2023/02/16 09:34:14;;;;;;;13.60;10.93;;;13.30;46.70;;;;;;5021964;28;20498;-53
2023/02/16 09:36:41;;;;;;;16.77;11.20;;;13.30;46.40;;;;;;5018200;28;20471;-53
2023/02/16 09:39:07;;;;;;;11.67;9.97;;;13.50;45.50;;;;;;5025832;28;20447;-54
2023/02/16 09:41:56;;;;;;;14.80;10.73;;;13.60;45.40;;;;;;5024833;28;20522;-53
2023/02/16 09:45:01;;;;;;;13.20;10.80;;;13.80;44.90;;;;;;5027598;28;20189;-54
2023/02/16 09:47:30;;;;;;;14.23;10.80;;;14.00;45.00;;;;;;5021804;28;21105;-54
2023/02/16 09:50:20;;;;;;;14.03;10.57;;;14.40;44.30;;;;;;5021970;28;20872;-54
2023/02/16 09:52:57;;;;;;;14.70;10.47;;;14.50;43.50;;;;;;5026658;28;20455;-53
2023/02/16 09:55:28;;;;;;;14.60;10.97;;;14.50;43.00;;;;;;5025240;28;20451;-54
2023/02/16 09:57:57;;;;;;;20.07;11.70;;;14.40;43.10;;;;;;5024132;28;20445;-55
2023/02/16 10:00:32;;;;;;;12.73;10.13;;;14.40;43.00;;;;;;5022753;28;20529;-54
2023/02/16 10:02:58;;;;;;;16.63;11.33;;;14.40;43.60;;;;;;5029954;28;20454;-54
2023/02/16 10:05:44;;;;;;;18.80;10.87;;;14.60;43.40;;;;;;5026578;28;20488;-54
2023/02/16 10:08:31;;;;;;;14.23;11.63;;;15.20;42.70;;;;;;5023481;28;20656;-53
2023/02/16 10:14:11;;;;;;;14.30;10.03;;;16.00;41.20;;;;;;5025408;28;20509;-55
2023/02/16 10:16:42;;;;;;;14.87;10.87;;;15.90;40.70;;;;;;5025557;28;20551;-55
2023/02/16 10:19:20;;;;;;;11.73;9.70;;;16.20;41.40;;;;;;5018906;28;20459;-55
2023/02/16 10:21:51;;;;;;;12.70;10.03;;;16.50;40.90;;;;;;5025341;28;20479;-55
2023/02/16 10:24:17;;;;;;;10.70;9.57;;;16.50;40.10;;;;;;5029754;28;20456;-54
2023/02/16 10:26:52;;;;;;;13.33;10.70;;;16.80;39.70;;;;;;5020466;28;20476;-55
2023/02/16 10:29:20;;;;;;;16.63;9.70;;;17.10;39.40;;;;;;5028424;28;20471;-55
2023/02/16 10:32:11;;;;;;;14.00;10.53;;;17.10;38.30;;;;;;5023413;28;20484;-55
2023/02/16 10:34:46;;;;;;;17.83;10.40;;;17.30;38.70;;;;;;5021041;28;20948;-55
2023/02/16 10:37:33;;;;;;;15.17;9.83;;;17.50;38.60;;;;;;5028040;28;20443;-56
2023/02/16 10:40:19;;;;;;;18.20;9.77;;;17.80;38.10;;;;;;5026215;28;20547;-55
2023/02/16 10:43:13;;;;;;;10.00;8.50;;;18.10;37.50;;;;;;5025644;28;20530;-55
2023/02/16 10:45:46;;;;;;;13.20;8.97;;;18.20;36.50;;;;;;5026053;28;20537;-55
2023/02/16 10:48:12;;;;;;;14.20;8.90;;;18.30;36.40;;;;;;5021344;28;20445;-54
2023/02/16 10:51:11;;;;;;;10.90;8.30;;;18.50;36.70;;;;;;5022395;28;20509;-56
2023/02/16 10:53:45;;;;;;;11.60;7.77;;;18.70;36.00;;;;;;5017041;28;20197;-55
2023/02/16 10:56:23;;;;;;;14.20;8.00;;;18.80;34.90;;;;;;5025493;28;20997;-55
2023/02/16 10:58:49;;;;;;;9.70;8.60;;;18.90;35.10;;;;;;5028935;28;20471;-55
2023/02/16 11:01:20;;;;;;;9.90;8.00;;;19.00;34.60;;;;;;5016427;28;20429;-55
2023/02/16 11:03:52;;;;;;;13.03;9.07;;;19.20;33.90;;;;;;5032361;28;20448;-55
2023/02/16 11:06:24;;;;;;;8.97;8.00;;;19.40;33.80;;;;;;5027106;28;20519;-55
2023/02/16 11:08:56;;;;;;;8.93;8.03;;;19.60;34.30;;;;;;5025881;28;20446;-55
2023/02/16 11:11:33;;;;;;;10.30;7.13;;;19.80;33.40;;;;;;5021877;28;20440;-56
2023/02/16 11:14:03;;;;;;;12.23;8.10;;;20.00;33.10;;;;;;5023991;28;20487;-55
2023/02/16 11:16:29;;;;;;;10.90;7.97;;;20.10;32.40;;;;;;5022324;28;20452;-55
2023/02/16 11:19:07;;;;;;;8.17;7.30;;;20.20;32.70;;;;;;5017214;28;20448;-56
2023/02/16 11:21:54;;;;;;;10.53;7.67;;;20.40;31.90;;;;;;5013152;28;20672;-55
2023/02/16 11:24:38;;;;;;;10.60;8.07;;;20.40;32.50;;;;;;5021241;28;20474;-56
2023/02/16 11:27:14;;;;;;;9.67;7.60;;;20.60;32.10;;;;;;5017262;28;20492;-56
2023/02/16 11:29:40;;;;;;;9.03;7.60;;;20.70;31.90;;;;;;5023451;28;20938;-55
2023/02/16 11:32:11;;;;;;;7.50;6.77;;;20.80;31.70;;;;;;5028543;28;20519;-54
2023/02/16 11:34:44;;;;;;;9.60;6.50;;;20.80;31.90;;;;;;5025883;28;20489;-53
2023/02/16 11:37:28;;;;;;;8.87;6.73;;;21.00;31.50;;;;;;5023986;28;20455;-54
2023/02/16 11:39:55;;;;;;;9.70;7.43;;;21.10;31.60;;;;;;5025787;28;20467;-52
2023/02/16 11:42:21;;;;;;;8.97;6.90;;;;;;;;;;5016212;28;20448;-50
2023/02/16 11:44:53;;;;;;;8.77;7.47;;;21.20;31.00;;;;;;5022372;28;20514;-51
2023/02/16 11:47:21;;;;;;;11.27;7.00;;;21.20;30.90;;;;;;5021966;28;20453;-53
2023/02/16 11:49:50;;;;;;;9.00;7.27;;;21.30;30.40;;;;;;5017632;28;20453;-53
2023/02/16 11:52:22;;;;;;;8.33;7.50;;;21.40;30.40;;;;;;5024015;28;20783;-54
2023/02/16 11:54:49;;;;;;;8.67;7.23;;;21.40;30.40;;;;;;5029153;28;20474;-54
2023/02/16 11:57:23;;;;;;;7.73;7.00;;;21.40;30.90;;;;;;5017223;28;20782;-53
2023/02/16 11:59:49;;;;;;;8.50;7.00;;;21.40;30.70;;;;;;5024565;28;20866;-53
2023/02/16 12:02:27;;;;;;;9.00;7.30;;;21.40;29.70;;;;;;5018736;28;20449;-54
2023/02/16 12:05:09;;;;;;;9.17;7.33;;;21.40;30.00;;;;;;5022484;28;20523;-54
2023/02/16 12:07:39;;;;;;;8.83;7.63;;;21.40;30.60;;;;;;5016831;28;20467;-53
2023/02/16 12:10:38;;;;;;;11.90;6.73;;;21.30;30.00;;;;;;5027617;28;20452;-53
2023/02/16 12:13:37;;;;;;;7.63;6.93;;;21.40;30.40;;;;;;5031145;28;20900;-54
2023/02/16 12:16:51;;;;;;;8.73;7.80;;;21.30;30.40;;;;;;4988940;28;20464;-54
2023/02/16 12:19:52;;;;;;;9.40;7.70;;;21.40;30.10;;;;;;5018963;28;20444;-53
2023/02/16 12:22:24;;;;;;;11.07;8.50;;;21.60;30.10;;;;;;5020602;28;20447;-52
2023/02/16 12:25:06;;;;;;;11.40;7.90;;;21.60;30.70;;;;;;5019896;28;20452;-51
2023/02/16 12:27:44;;;;;;;10.73;8.17;;;21.70;30.30;;;;;;5024980;28;20456;-50
2023/02/16 12:30:47;;;;;;;10.23;7.97;;;21.80;30.10;;;;;;5023227;28;20942;-53
2023/02/16 12:33:25;;;;;;;7.70;6.90;;;22.00;30.10;;;;;;5023004;28;20456;-54
2023/02/16 12:36:28;;;;;;;8.90;8.00;;;22.00;29.90;;;;;;5028713;28;22089;-51
2023/02/16 12:39:07;;;;;;;9.67;7.40;;;22.00;30.00;;;;;;5022082;28;20582;-54
2023/02/16 12:42:01;;;;;;;10.07;7.40;;;22.10;30.00;;;;;;5026734;28;20481;-52
2023/02/16 12:44:45;;;;;;;8.73;7.30;;;22.40;29.90;;;;;;5021164;28;20456;-54
2023/02/16 12:47:24;;;;;;;10.00;7.00;;;22.30;29.80;;;;;;5028096;28;20491;-51
2023/02/16 12:49:57;;;;;;;8.53;6.87;;;22.40;29.60;;;;;;5021964;28;20479;-53
2023/02/16 12:52:27;;;;;;;8.20;7.40;;;22.40;29.90;;;;;;5021394;28;20466;-54
2023/02/16 12:55:00;;;;;;;8.47;6.97;;;22.40;30.00;;;;;;5022706;28;20463;-51
2023/02/16 12:57:27;;;;;;;7.97;7.17;;;22.40;30.00;;;;;;5026958;28;20861;-50
2023/02/16 13:00:01;;;;;;;8.43;6.97;;;22.40;29.50;;;;;;5019781;28;20450;-53
2023/02/16 13:02:33;;;;;;;8.87;7.73;;;22.50;29.80;;;;;;5022591;28;20452;-53
2023/02/16 13:05:35;;;;;;;14.73;8.33;;;22.50;30.10;;;;;;5022974;28;20448;-52
2023/02/16 13:08:18;;;;;;;9.47;6.77;;;22.50;29.60;;;;;;5019264;28;20462;-53
2023/02/16 13:11:05;;;;;;;10.83;7.63;;;22.50;29.50;;;;;;5020281;28;20567;-50
2023/02/16 13:13:33;;;;;;;8.40;7.07;;;22.50;29.70;;;;;;5023638;28;20557;-50
2023/02/16 13:16:18;;;;;;;9.23;7.03;;;22.50;30.10;;;;;;5025153;28;20459;-51
2023/02/16 13:18:47;;;;;;;8.83;7.57;;;22.60;30.20;;;;;;5018979;28;20499;-50
2023/02/16 13:21:28;;;;;;;8.30;7.23;;;22.70;30.00;;;;;;5015635;28;20459;-52
2023/02/16 13:23:58;;;;;;;12.57;8.07;;;22.80;29.50;;;;;;5019061;28;20459;-53
2023/02/16 13:26:36;;;;;;;9.60;7.17;;;22.90;29.70;;;;;;5018937;28;20488;-50
2023/02/16 13:29:43;;;;;;;9.27;7.97;;;23.00;29.80;;;;;;5010322;28;20440;-50
2023/02/16 13:32:48;;;;;;;9.60;7.60;;;23.10;29.90;;;;;;5010121;28;20472;-49
2023/02/16 13:35:39;;;;;;;9.73;7.40;;;23.30;29.30;;;;;;5025331;28;20809;-53
2023/02/16 13:38:31;;;;;;;10.57;7.70;;;23.10;28.80;;;;;;5029225;28;20455;-50
2023/02/16 13:41:32;;;;;;;9.73;8.40;;;23.00;29.40;;;;;;5029836;28;20439;-52
2023/02/16 13:44:07;;;;;;;11.97;7.40;;;23.10;29.40;;;;;;5026052;28;20454;-51
2023/02/16 13:46:38;;;;;;;9.60;7.90;;;23.10;29.40;;;;;;5029946;28;20482;-49
2023/02/16 13:49:04;;;;;;;11.40;7.57;;;23.10;29.70;;;;;;5030054;28;20428;-53